createdAt,value
2022-10-20T00:01:53.693Z,100413.03
2022-10-20T00:04:41.800Z,100405.59
2022-10-20T00:07:29.851Z,100410.97
2022-10-20T00:10:18.310Z,100402.09
2022-10-20T00:13:06.700Z,100414.41
2022-10-20T00:15:57.373Z,100406.69
2022-10-20T00:18:46.669Z,100408.31
2022-10-20T00:21:34.784Z,100400.66
2022-10-20T00:24:25.515Z,100398.41
2022-10-20T00:27:13.643Z,100398.91
2022-10-20T00:30:02.012Z,100388.72
2022-10-20T00:32:50.105Z,100400.53
2022-10-20T00:35:42.212Z,100380.50
2022-10-20T00:38:30.882Z,100370.78
2022-10-20T00:41:24.384Z,100369.50
2022-10-20T00:44:52.362Z,100361.66
2022-10-20T00:47:54.746Z,100353.38
2022-10-20T00:50:50.072Z,100355.69
2022-10-20T00:53:38.646Z,100359.66
2022-10-20T00:56:30.163Z,100361.50
2022-10-20T00:59:27.074Z,100349.97
2022-10-20T01:02:15.248Z,100328.72
2022-10-20T01:05:05.030Z,100326.53
2022-10-20T01:07:53.264Z,100338.78
2022-10-20T01:11:03.469Z,100323.47
2022-10-20T01:14:27.774Z,100317.31
2022-10-20T01:17:34.780Z,100324.47
2022-10-20T01:20:39.611Z,100323.47
2022-10-20T01:24:23.942Z,100313.72
2022-10-20T01:27:51.089Z,100311.13
2022-10-20T01:30:47.148Z,100304.34
2022-10-20T01:33:55.263Z,100303.44
2022-10-20T01:37:08.166Z,100311.16
2022-10-20T01:40:26.899Z,100306.84
2022-10-20T01:43:18.708Z,100311.22
2022-10-20T01:46:09.485Z,100298.47
2022-10-20T01:49:00.572Z,100292.22
2022-10-20T01:51:48.869Z,100293.72
2022-10-20T01:54:36.742Z,100282.75
2022-10-20T01:58:02.454Z,100291.09
2022-10-20T02:00:53.216Z,100290.47
2022-10-20T02:03:53.816Z,100284.91
2022-10-20T02:06:53.354Z,100283.19
2022-10-20T02:10:00.711Z,100278.28
2022-10-20T02:12:57.181Z,100286.66
2022-10-20T02:15:54.096Z,100284.53
2022-10-20T02:18:44.080Z,100278.88
2022-10-20T02:21:32.373Z,100283.00
2022-10-20T02:24:26.407Z,100284.41
2022-10-20T02:27:26.419Z,100268.53
2022-10-20T02:30:18.199Z,100279.25
2022-10-20T02:33:07.817Z,100274.25
2022-10-20T02:35:59.395Z,100272.72
2022-10-20T02:38:47.898Z,100270.22
2022-10-20T02:41:36.769Z,100266.91
2022-10-20T02:44:24.819Z,100259.09
2022-10-20T02:47:12.600Z,100254.91
2022-10-20T02:50:01.920Z,100250.13
2022-10-20T02:52:53.065Z,100247.72
2022-10-20T02:55:42.732Z,100244.66
2022-10-20T02:58:30.900Z,100247.38
2022-10-20T03:01:18.922Z,100246.34
2022-10-20T03:04:07.527Z,100244.94
2022-10-20T03:06:55.781Z,100254.78
2022-10-20T03:09:44.546Z,100258.75
2022-10-20T03:12:32.782Z,100246.44
2022-10-20T03:15:21.021Z,100244.94
2022-10-20T03:18:09.304Z,100239.50
2022-10-20T03:20:57.632Z,100242.53
2022-10-20T03:23:46.266Z,100234.97
2022-10-20T03:26:34.446Z,100237.28
2022-10-20T03:29:22.238Z,100236.16
2022-10-20T03:32:10.183Z,100237.66
2022-10-20T03:35:01.225Z,100229.28
2022-10-20T03:37:49.158Z,100232.72
2022-10-20T03:40:37.155Z,100219.25
2022-10-20T03:43:25.196Z,100214.75
2022-10-20T03:46:13.017Z,100200.00
2022-10-20T03:49:01.180Z,100212.91
2022-10-20T03:51:49.250Z,100204.13
2022-10-20T03:54:37.724Z,100211.19
2022-10-20T03:57:28.500Z,100206.81
2022-10-20T04:00:18.202Z,100209.69
2022-10-20T04:03:06.787Z,100214.75
2022-10-20T04:05:54.974Z,100215.88
2022-10-20T04:08:43.221Z,100221.72
2022-10-20T04:11:32.965Z,100210.63
2022-10-20T04:14:21.115Z,100200.09
2022-10-20T04:17:10.061Z,100193.63
2022-10-20T04:19:58.273Z,100183.94
2022-10-20T04:22:46.485Z,100172.84
2022-10-20T04:25:34.581Z,100184.16
2022-10-20T04:28:22.508Z,100180.88
2022-10-20T04:31:10.639Z,100162.72
2022-10-20T04:33:58.504Z,100163.03
2022-10-20T04:36:46.480Z,100175.00
2022-10-20T04:39:34.695Z,100173.34
2022-10-20T04:42:23.819Z,100161.63
2022-10-20T04:45:11.871Z,100147.44
2022-10-20T04:48:00.380Z,100153.50
2022-10-20T04:51:06.442Z,100141.34
2022-10-20T04:54:00.515Z,100146.88
2022-10-20T04:56:51.781Z,100150.69
2022-10-20T04:59:39.907Z,100141.84
2022-10-20T05:02:28.466Z,100132.34
2022-10-20T05:05:16.602Z,100127.78
2022-10-20T05:08:07.441Z,100117.00
2022-10-20T05:10:55.548Z,100108.81
2022-10-20T05:13:44.413Z,100102.00
2022-10-20T05:16:33.024Z,100093.06
2022-10-20T05:19:21.221Z,100096.31
2022-10-20T05:22:09.560Z,100095.09
2022-10-20T05:25:04.010Z,100091.06
2022-10-20T05:28:01.192Z,100093.06
2022-10-20T05:30:53.244Z,100092.34
2022-10-20T05:33:55.133Z,100081.16
2022-10-20T05:36:46.555Z,100077.94
2022-10-20T05:39:41.296Z,100074.78
2022-10-20T05:42:29.971Z,100074.06
2022-10-20T05:49:25.895Z,100057.19
2022-10-20T05:52:14.197Z,100080.06
2022-10-20T05:55:03.297Z,100076.09
2022-10-20T05:57:52.276Z,100074.13
2022-10-20T06:00:52.302Z,100075.78
2022-10-20T06:03:43.638Z,100076.03
2022-10-20T06:06:32.008Z,100074.19
2022-10-20T06:09:32.296Z,100077.03
2022-10-20T06:12:25.990Z,100072.88
2022-10-20T06:15:14.727Z,100085.78
2022-10-20T06:21:49.588Z,100080.47
2022-10-20T06:24:43.509Z,100083.63
2022-10-20T06:27:34.389Z,100082.75
2022-10-20T06:30:23.336Z,100085.25
2022-10-20T06:33:16.378Z,100095.66
2022-10-20T06:36:04.994Z,100096.91
2022-10-20T06:39:03.679Z,100085.44
2022-10-20T06:41:57.518Z,100097.94
2022-10-20T06:44:47.218Z,100097.84
2022-10-20T06:47:35.695Z,100113.56
2022-10-20T06:50:25.660Z,100105.69
2022-10-20T06:53:17.260Z,100099.94
2022-10-20T06:56:14.105Z,100114.63
2022-10-20T06:59:04.854Z,100099.50
2022-10-20T07:01:55.559Z,100111.09
2022-10-20T07:04:46.832Z,100134.28
2022-10-20T07:07:38.751Z,100128.97
2022-10-20T07:10:30.158Z,100123.41
2022-10-20T07:13:18.568Z,100118.13
2022-10-20T07:16:09.664Z,100125.59
2022-10-20T07:18:58.776Z,100119.66
2022-10-20T07:21:47.003Z,100115.56
2022-10-20T07:24:40.212Z,100122.13
2022-10-20T07:27:29.031Z,100125.41
2022-10-20T07:30:17.925Z,100121.19
2022-10-20T07:33:06.411Z,100129.78
2022-10-20T07:35:54.590Z,100116.28
2022-10-20T07:38:44.210Z,100138.44
2022-10-20T07:41:33.688Z,100124.38
2022-10-20T07:44:22.588Z,100122.22
2022-10-20T07:47:13.233Z,100104.22
2022-10-20T07:50:04.235Z,100105.88
2022-10-20T07:52:53.347Z,100099.19
2022-10-20T07:55:41.814Z,100112.34
2022-10-20T07:58:30.600Z,100110.31
2022-10-20T08:01:21.984Z,100104.25
2022-10-20T08:04:10.591Z,100114.19
2022-10-20T08:07:00.173Z,100107.97
2022-10-20T08:09:50.094Z,100109.44
2022-10-20T08:12:38.846Z,100105.22
2022-10-20T08:15:27.360Z,100107.75
2022-10-20T08:18:19.034Z,100110.13
2022-10-20T08:21:17.941Z,100111.16
2022-10-20T08:24:06.529Z,100107.91
2022-10-20T08:26:54.691Z,100092.50
2022-10-20T08:29:59.876Z,100092.13
2022-10-20T08:32:54.978Z,100099.44
2022-10-20T08:35:43.118Z,100098.41
2022-10-20T08:38:32.143Z,100086.81
2022-10-20T08:41:38.707Z,100087.66
2022-10-20T08:44:35.985Z,100065.56
2022-10-20T08:47:37.578Z,100060.63
2022-10-20T08:50:28.970Z,100064.94
2022-10-20T08:54:00.080Z,100074.19
2022-10-20T08:56:50.034Z,100066.88
2022-10-20T08:59:39.629Z,100071.22
2022-10-20T09:02:33.624Z,100043.22
2022-10-20T09:05:34.983Z,100053.66
2022-10-20T09:08:37.517Z,100041.69
2022-10-20T09:11:36.513Z,100068.31
2022-10-20T09:14:24.862Z,100054.50
2022-10-20T09:17:19.428Z,100030.88
2022-10-20T09:20:20.705Z,100043.63
2022-10-20T09:23:40.055Z,100053.97
2022-10-20T09:26:58.061Z,100057.03
2022-10-20T09:29:47.535Z,100059.38
2022-10-20T09:32:47.086Z,100048.09
2022-10-20T09:35:39.946Z,100048.44
2022-10-20T09:38:33.232Z,100038.09
2022-10-20T09:41:40.378Z,100036.25
2022-10-20T09:44:29.085Z,100036.59
2022-10-20T09:47:18.044Z,100052.88
2022-10-20T09:50:09.248Z,100050.84
2022-10-20T09:53:01.342Z,100059.63
2022-10-20T09:55:51.275Z,100056.03
2022-10-20T09:58:40.310Z,100040.63
2022-10-20T10:01:29.245Z,100052.88
2022-10-20T10:04:37.442Z,100065.19
2022-10-20T10:07:25.602Z,100056.63
2022-10-20T10:10:26.026Z,100044.44
2022-10-20T10:13:29.950Z,100029.16
2022-10-20T10:16:24.542Z,100021.31
2022-10-20T10:19:21.481Z,100054.81
2022-10-20T10:22:13.515Z,100056.53
2022-10-20T10:25:04.746Z,100052.91
2022-10-20T10:31:24.311Z,100038.69
2022-10-20T10:34:16.249Z,100043.91
2022-10-20T10:37:04.822Z,100045.84
2022-10-20T10:39:53.659Z,100036.63
2022-10-20T10:43:13.285Z,100025.19
2022-10-20T10:46:09.119Z,100003.06
2022-10-20T10:49:16.837Z,100016.91
2022-10-20T10:52:25.902Z,100008.78
2022-10-20T10:55:53.278Z,99998.47
2022-10-20T10:58:54.984Z,100005.34
2022-10-20T11:02:01.116Z,100013.03
2022-10-20T11:05:43.646Z,99994.66
2022-10-20T11:09:07.893Z,99989.94
2022-10-20T11:12:41.731Z,99989.69
2022-10-20T11:16:11.380Z,99968.84
2022-10-20T11:18:59.296Z,99972.25
2022-10-20T11:22:16.675Z,99953.72
2022-10-20T11:25:26.697Z,99973.31
2022-10-20T11:28:45.112Z,99970.72
2022-10-20T11:32:19.200Z,99964.88
2022-10-20T11:35:42.737Z,99946.91
2022-10-20T11:39:00.733Z,99954.91
2022-10-20T11:41:52.251Z,99954.28
2022-10-20T11:44:44.979Z,99970.97
2022-10-20T11:47:41.008Z,99957.91
2022-10-20T11:50:30.622Z,99958.53
2022-10-20T11:53:37.806Z,99954.63
2022-10-20T11:57:03.225Z,99962.50
2022-10-20T12:00:32.258Z,99956.47
2022-10-20T12:03:41.563Z,99960.78
2022-10-20T12:10:15.036Z,99966.03
2022-10-20T12:13:22.117Z,99970.97
2022-10-20T12:16:10.906Z,99957.41
2022-10-20T12:19:20.012Z,99973.31
2022-10-20T12:22:17.381Z,99959.72
2022-10-20T12:25:05.426Z,99956.19
2022-10-20T12:28:25.265Z,99959.13
2022-10-20T12:31:14.309Z,99939.19
2022-10-20T12:34:04.078Z,99937.34
2022-10-20T12:37:16.579Z,99952.91
2022-10-20T12:40:08.022Z,99952.41
2022-10-20T12:42:56.831Z,99936.53
2022-10-20T12:45:49.734Z,99947.88
2022-10-20T12:48:46.412Z,99949.06
2022-10-20T12:51:54.443Z,99919.38
2022-10-20T12:54:49.708Z,99925.63
2022-10-20T12:57:45.289Z,99938.47
2022-10-20T13:00:55.960Z,99944.09
2022-10-20T13:03:56.495Z,99925.94
2022-10-20T13:06:45.978Z,99938.72
2022-10-20T13:10:09.968Z,99956.03
2022-10-20T13:13:10.370Z,99948.66
2022-10-20T13:16:20.987Z,99941.78
2022-10-20T13:20:11.720Z,99932.34
2022-10-20T13:23:11.770Z,99914.38
2022-10-20T13:26:32.860Z,99939.22
2022-10-20T13:30:02.749Z,99928.66
2022-10-20T13:34:04.540Z,99926.63
2022-10-20T13:40:38.023Z,99899.81
2022-10-20T13:44:07.822Z,99903.31
2022-10-20T13:51:44.082Z,99904.06
2022-10-20T13:55:14.656Z,99906.50
2022-10-20T13:58:26.552Z,99903.84
2022-10-20T14:01:26.642Z,99885.88
2022-10-20T14:04:38.047Z,99885.31
2022-10-20T14:08:04.639Z,99880.19
2022-10-20T14:11:11.500Z,99880.13
2022-10-20T14:14:00.192Z,99885.53
2022-10-20T14:17:12.152Z,99882.53
2022-10-20T14:20:44.382Z,99908.91
2022-10-20T14:25:22.105Z,99902.28
2022-10-20T14:27:12.404Z,99895.06
2022-10-20T14:30:18.665Z,99903.72
2022-10-20T14:33:14.900Z,99909.66
2022-10-20T14:36:21.315Z,99908.81
2022-10-20T14:39:42.820Z,99891.47
2022-10-20T14:42:44.158Z,99898.06
2022-10-20T14:45:41.823Z,99895.69
2022-10-20T14:48:45.259Z,99928.94
2022-10-20T14:51:45.101Z,99929.66
2022-10-20T14:54:39.231Z,99926.00
2022-10-20T14:57:38.198Z,99911.50
2022-10-20T15:00:35.258Z,99916.69
2022-10-20T15:03:23.824Z,99910.19
2022-10-20T15:06:18.040Z,99923.13
2022-10-20T15:09:06.121Z,99914.53
2022-10-20T15:11:54.057Z,99904.69
2022-10-20T15:14:48.137Z,99901.25
2022-10-20T15:17:50.726Z,99889.69
2022-10-20T15:20:43.787Z,99896.00
2022-10-20T15:23:32.429Z,99891.66
2022-10-20T15:26:20.586Z,99891.88
2022-10-20T15:29:09.855Z,99890.03
2022-10-20T15:32:02.202Z,99879.31
2022-10-20T15:34:50.173Z,99888.94
2022-10-20T15:37:38.086Z,99877.13
2022-10-20T15:40:26.220Z,99866.66
2022-10-20T15:43:17.589Z,99861.78
2022-10-20T15:46:07.099Z,99854.28
2022-10-20T15:48:55.489Z,99853.78
2022-10-20T15:51:50.487Z,99838.06
2022-10-20T15:54:38.705Z,99838.88
2022-10-20T15:57:26.683Z,99845.66
2022-10-20T16:00:15.341Z,99844.28
2022-10-20T16:03:05.017Z,99841.00
2022-10-20T16:05:54.029Z,99823.63
2022-10-20T16:08:44.630Z,99812.59
2022-10-20T16:11:32.822Z,99808.88
2022-10-20T16:14:20.905Z,99818.66
2022-10-20T16:17:09.234Z,99806.13
2022-10-20T16:19:57.436Z,99807.69
2022-10-20T16:22:46.203Z,99810.66
2022-10-20T16:25:37.102Z,99791.78
2022-10-20T16:28:25.529Z,99792.47
2022-10-20T16:31:18.697Z,99810.91
2022-10-20T16:34:07.087Z,99798.41
2022-10-20T16:36:55.600Z,99798.06
2022-10-20T16:39:46.182Z,99814.78
2022-10-20T16:42:36.867Z,99793.63
2022-10-20T16:45:25.209Z,99801.31
2022-10-20T16:48:16.402Z,99791.44
2022-10-20T16:51:41.187Z,99790.38
2022-10-20T16:57:40.689Z,99768.38
2022-10-20T17:00:29.680Z,99761.56
2022-10-20T17:03:24.706Z,99772.63
2022-10-20T17:06:18.645Z,99766.47
2022-10-20T17:09:08.371Z,99764.75
2022-10-20T17:11:57.512Z,99780.31
2022-10-20T17:14:45.718Z,99794.50
2022-10-20T17:17:33.930Z,99791.28
2022-10-20T17:20:23.480Z,99799.47
2022-10-20T17:23:12.173Z,99803.34
2022-10-20T17:26:02.747Z,99809.06
2022-10-20T17:28:57.507Z,99813.84
2022-10-20T17:31:45.693Z,99807.19
2022-10-20T17:34:34.029Z,99821.69
2022-10-20T17:37:22.145Z,99830.63
2022-10-20T17:40:10.706Z,99824.28
2022-10-20T17:42:58.743Z,99832.31
2022-10-20T17:46:12.529Z,99829.19
2022-10-20T17:49:03.561Z,99834.56
2022-10-20T17:51:51.627Z,99837.66
2022-10-20T17:54:39.737Z,99803.75
2022-10-20T17:57:30.768Z,99799.97
2022-10-20T18:00:26.884Z,99799.31
2022-10-20T18:03:25.843Z,99778.56
2022-10-20T18:06:18.920Z,99746.50
2022-10-20T18:09:11.751Z,99714.47
2022-10-20T18:12:03.035Z,99718.25
2022-10-20T18:14:51.437Z,99772.63
2022-10-20T18:17:39.339Z,99788.38
2022-10-20T18:20:30.908Z,99801.94
2022-10-20T18:23:23.683Z,99781.19
2022-10-20T18:26:36.410Z,99789.75
2022-10-20T18:29:26.485Z,99776.31
2022-10-20T18:32:35.357Z,99774.47
2022-10-20T18:35:23.774Z,99778.81
2022-10-20T18:38:12.116Z,99744.34
2022-10-20T18:41:14.077Z,99751.91
2022-10-20T18:44:03.755Z,99776.19
2022-10-20T18:46:58.473Z,99749.09
2022-10-20T18:49:49.202Z,99765.44
2022-10-20T18:52:37.672Z,99786.50
2022-10-20T18:55:25.852Z,99766.88
2022-10-20T18:58:14.333Z,99777.25
2022-10-20T19:01:10.948Z,99789.16
2022-10-20T19:04:00.308Z,99770.84
2022-10-20T19:06:49.474Z,99753.69
2022-10-20T19:09:40.585Z,99742.56
2022-10-20T19:12:28.598Z,99753.19
2022-10-20T19:15:17.480Z,99761.31
2022-10-20T19:18:05.823Z,99755.25
2022-10-20T19:21:03.420Z,99752.59
2022-10-20T19:23:57.822Z,99755.72
2022-10-20T19:27:02.162Z,99741.03
2022-10-20T19:29:56.257Z,99739.97
2022-10-20T19:32:44.716Z,99755.97
2022-10-20T19:35:33.219Z,99751.19
2022-10-20T19:38:21.765Z,99745.56
2022-10-20T19:41:09.939Z,99750.84
2022-10-20T19:43:58.108Z,99749.56
2022-10-20T19:46:50.322Z,99745.94
2022-10-20T19:49:41.704Z,99740.75
2022-10-20T19:52:29.713Z,99728.84
2022-10-20T19:55:17.911Z,99728.97
2022-10-20T19:58:06.143Z,99728.72
2022-10-20T20:00:59.586Z,99707.53
2022-10-20T20:03:48.372Z,99689.75
2022-10-20T20:06:41.974Z,99690.41
2022-10-20T20:09:31.163Z,99672.72
2022-10-20T20:12:19.397Z,99672.28
2022-10-20T20:15:08.077Z,99692.34
2022-10-20T20:18:02.500Z,99683.53
2022-10-20T20:20:50.826Z,99664.72
2022-10-20T20:23:58.847Z,99660.94
2022-10-20T20:27:18.775Z,99671.94
2022-10-20T20:30:08.120Z,99683.03
2022-10-20T20:33:08.904Z,99682.34
2022-10-20T20:36:02.075Z,99684.72
2022-10-20T20:38:55.128Z,99698.81
2022-10-20T20:41:54.180Z,99699.78
2022-10-20T20:44:44.376Z,99693.81
2022-10-20T20:47:35.277Z,99695.13
2022-10-20T20:50:26.526Z,99697.44
2022-10-20T20:53:14.358Z,99711.56
2022-10-20T20:56:18.119Z,99695.47
2022-10-20T20:59:19.868Z,99697.75
2022-10-20T21:02:11.658Z,99697.31
2022-10-20T21:04:59.842Z,99690.47
2022-10-20T21:07:48.031Z,99692.72
2022-10-20T21:10:37.196Z,99698.41
2022-10-20T21:13:31.554Z,99687.94
2022-10-20T21:16:26.863Z,99689.41
2022-10-20T21:19:17.481Z,99688.75
2022-10-20T21:22:08.161Z,99677.19
2022-10-20T21:24:56.462Z,99679.53
2022-10-20T21:27:47.179Z,99673.28
2022-10-20T21:30:35.294Z,99663.44
2022-10-20T21:33:23.741Z,99660.88
2022-10-20T21:36:15.126Z,99649.34
2022-10-20T21:39:11.593Z,99661.91
2022-10-20T21:41:59.858Z,99665.88
2022-10-20T21:44:50.515Z,99666.63
2022-10-20T21:47:41.092Z,99664.06
2022-10-20T21:50:29.282Z,99654.69
2022-10-20T21:53:18.838Z,99655.66
2022-10-20T21:56:08.210Z,99661.56
2022-10-20T21:58:56.781Z,99661.59
2022-10-20T22:01:46.328Z,99651.94
2022-10-20T22:04:34.405Z,99656.69
2022-10-20T22:07:25.101Z,99652.47
2022-10-20T22:10:24.172Z,99645.78
2022-10-20T22:13:12.399Z,99638.13
2022-10-20T22:16:10.277Z,99641.72
2022-10-20T22:19:04.679Z,99648.19
2022-10-20T22:21:53.936Z,99652.09
2022-10-20T22:24:42.090Z,99649.63
2022-10-20T22:27:41.860Z,99656.19
2022-10-20T22:30:30.757Z,99655.56
2022-10-20T22:33:19.292Z,99648.56
2022-10-20T22:36:09.744Z,99649.81
2022-10-20T22:38:57.982Z,99631.28
2022-10-20T22:41:46.320Z,99637.44
2022-10-20T22:44:34.670Z,99641.16
2022-10-20T22:47:22.819Z,99640.03
2022-10-20T22:50:11.112Z,99633.28
2022-10-20T22:52:59.382Z,99634.91
2022-10-20T22:55:48.133Z,99647.91
2022-10-20T22:58:36.825Z,99636.19
2022-10-20T23:01:25.205Z,99638.84
2022-10-20T23:04:14.466Z,99624.44
2022-10-20T23:09:50.853Z,99631.34
2022-10-20T23:12:41.471Z,99641.97
2022-10-20T23:15:29.720Z,99635.91
2022-10-20T23:18:18.319Z,99642.06
2022-10-20T23:21:07.200Z,99635.81
2022-10-20T23:23:55.644Z,99631.66
2022-10-20T23:26:44.077Z,99643.03
2022-10-20T23:29:32.693Z,99645.91
2022-10-20T23:32:20.898Z,99638.00
2022-10-20T23:35:09.448Z,99632.53
2022-10-20T23:38:09.220Z,99636.75
2022-10-20T23:40:57.094Z,99651.66
2022-10-20T23:43:45.338Z,99644.19
2022-10-20T23:46:35.029Z,99643.91
2022-10-20T23:49:23.192Z,99650.44
2022-10-20T23:52:11.073Z,99651.59
2022-10-20T23:55:02.031Z,99650.91
2022-10-20T23:57:50.892Z,99655.25
